sensor_id;sensor_type;location;lat;lon;timestamp;temperature;humidity
9057;DHT22;4563;54.756;9.400;2023-04-03T00:02:14;5.50;59.60
9057;DHT22;4563;54.756;9.400;2023-04-03T00:04:40;5.40;59.50
9057;DHT22;4563;54.756;9.400;2023-04-03T00:07:12;5.40;59.60
9057;DHT22;4563;54.756;9.400;2023-04-03T00:09:45;5.40;59.60
9057;DHT22;4563;54.756;9.400;2023-04-03T00:12:14;5.40;59.60
9057;DHT22;4563;54.756;9.400;2023-04-03T00:14:41;5.40;59.90
9057;DHT22;4563;54.756;9.400;2023-04-03T00:17:10;5.30;59.60
9057;DHT22;4563;54.756;9.400;2023-04-03T00:19:39;5.30;59.70
9057;DHT22;4563;54.756;9.400;2023-04-03T00:22:05;5.30;59.80
9057;DHT22;4563;54.756;9.400;2023-04-03T00:24:35;5.30;59.80
9057;DHT22;4563;54.756;9.400;2023-04-03T00:27:01;5.20;59.90
9057;DHT22;4563;54.756;9.400;2023-04-03T00:29:30;5.20;60.00
9057;DHT22;4563;54.756;9.400;2023-04-03T00:31:57;5.20;60.00
9057;DHT22;4563;54.756;9.400;2023-04-03T00:34:27;5.10;59.90
9057;DHT22;4563;54.756;9.400;2023-04-03T00:36:57;5.10;60.00
9057;DHT22;4563;54.756;9.400;2023-04-03T00:39:23;5.10;60.00
9057;DHT22;4563;54.756;9.400;2023-04-03T00:41:55;5.10;60.00
9057;DHT22;4563;54.756;9.400;2023-04-03T00:45:18;5.10;60.20
9057;DHT22;4563;54.756;9.400;2023-04-03T00:47:17;5.00;60.20
9057;DHT22;4563;54.756;9.400;2023-04-03T00:49:45;5.00;60.40
9057;DHT22;4563;54.756;9.400;2023-04-03T00:52:15;5.00;60.30
9057;DHT22;4563;54.756;9.400;2023-04-03T00:54:43;5.00;60.50
9057;DHT22;4563;54.756;9.400;2023-04-03T00:57:12;5.00;60.40
9057;DHT22;4563;54.756;9.400;2023-04-03T00:59:44;4.90;60.40
9057;DHT22;4563;54.756;9.400;2023-04-03T01:02:11;4.90;60.40
9057;DHT22;4563;54.756;9.400;2023-04-03T01:04:42;4.90;60.40
9057;DHT22;4563;54.756;9.400;2023-04-03T01:07:12;4.90;60.60
9057;DHT22;4563;54.756;9.400;2023-04-03T01:09:40;4.90;60.60
9057;DHT22;4563;54.756;9.400;2023-04-03T01:12:15;4.80;60.60
9057;DHT22;4563;54.756;9.400;2023-04-03T01:14:42;4.80;60.70
9057;DHT22;4563;54.756;9.400;2023-04-03T01:17:29;4.80;60.70
9057;DHT22;4563;54.756;9.400;2023-04-03T01:22:57;4.70;60.80
9057;DHT22;4563;54.756;9.400;2023-04-03T01:25:25;4.70;60.80
9057;DHT22;4563;54.756;9.400;2023-04-03T01:27:52;4.70;60.70
9057;DHT22;4563;54.756;9.400;2023-04-03T01:30:21;4.70;60.90
9057;DHT22;4563;54.756;9.400;2023-04-03T01:32:52;4.70;60.90
9057;DHT22;4563;54.756;9.400;2023-04-03T01:35:18;4.60;60.90
9057;DHT22;4563;54.756;9.400;2023-04-03T01:37:45;4.60;60.90
9057;DHT22;4563;54.756;9.400;2023-04-03T01:40:12;4.70;61.10
9057;DHT22;4563;54.756;9.400;2023-04-03T01:42:39;4.60;61.10
9057;DHT22;4563;54.756;9.400;2023-04-03T01:45:06;4.60;61.20
9057;DHT22;4563;54.756;9.400;2023-04-03T01:47:33;4.60;61.40
9057;DHT22;4563;54.756;9.400;2023-04-03T01:50:01;4.60;61.30
9057;DHT22;4563;54.756;9.400;2023-04-03T01:52:29;4.60;61.30
9057;DHT22;4563;54.756;9.400;2023-04-03T01:54:55;4.50;61.30
9057;DHT22;4563;54.756;9.400;2023-04-03T01:57:22;4.50;61.30
9057;DHT22;4563;54.756;9.400;2023-04-03T01:59:49;4.50;61.30
9057;DHT22;4563;54.756;9.400;2023-04-03T02:02:16;4.50;61.30
9057;DHT22;4563;54.756;9.400;2023-04-03T02:04:45;4.50;61.50
9057;DHT22;4563;54.756;9.400;2023-04-03T02:07:13;4.50;61.50
9057;DHT22;4563;54.756;9.400;2023-04-03T02:09:40;4.40;61.60
9057;DHT22;4563;54.756;9.400;2023-04-03T02:12:07;4.40;61.60
9057;DHT22;4563;54.756;9.400;2023-04-03T02:14:34;4.40;61.60
9057;DHT22;4563;54.756;9.400;2023-04-03T02:17:01;4.40;61.60
9057;DHT22;4563;54.756;9.400;2023-04-03T02:19:30;4.40;62.00
9057;DHT22;4563;54.756;9.400;2023-04-03T02:21:57;4.40;61.80
9057;DHT22;4563;54.756;9.400;2023-04-03T02:24:25;4.40;61.80
9057;DHT22;4563;54.756;9.400;2023-04-03T02:26:52;4.30;61.80
9057;DHT22;4563;54.756;9.400;2023-04-03T02:29:19;4.30;61.80
9057;DHT22;4563;54.756;9.400;2023-04-03T02:31:46;4.30;61.80
9057;DHT22;4563;54.756;9.400;2023-04-03T02:34:13;4.30;61.80
9057;DHT22;4563;54.756;9.400;2023-04-03T02:36:40;4.30;61.90
9057;DHT22;4563;54.756;9.400;2023-04-03T02:39:07;4.30;61.90
9057;DHT22;4563;54.756;9.400;2023-04-03T02:41:35;4.30;62.20
9057;DHT22;4563;54.756;9.400;2023-04-03T02:44:03;4.30;62.30
9057;DHT22;4563;54.756;9.400;2023-04-03T02:46:30;4.30;62.40
9057;DHT22;4563;54.756;9.400;2023-04-03T02:48:57;4.20;62.40
9057;DHT22;4563;54.756;9.400;2023-04-03T02:51:23;4.20;62.40
9057;DHT22;4563;54.756;9.400;2023-04-03T02:53:50;4.20;62.30
9057;DHT22;4563;54.756;9.400;2023-04-03T02:56:18;4.10;62.20
9057;DHT22;4563;54.756;9.400;2023-04-03T02:58:47;4.10;62.20
9057;DHT22;4563;54.756;9.400;2023-04-03T03:01:14;4.10;62.20
9057;DHT22;4563;54.756;9.400;2023-04-03T03:03:41;4.10;62.30
9057;DHT22;4563;54.756;9.400;2023-04-03T03:06:09;4.10;62.30
9057;DHT22;4563;54.756;9.400;2023-04-03T03:08:37;4.10;62.30
9057;DHT22;4563;54.756;9.400;2023-04-03T03:11:04;4.10;62.40
9057;DHT22;4563;54.756;9.400;2023-04-03T03:13:31;4.10;62.40
9057;DHT22;4563;54.756;9.400;2023-04-03T03:16:00;4.10;62.40
9057;DHT22;4563;54.756;9.400;2023-04-03T03:18:28;4.00;62.40
9057;DHT22;4563;54.756;9.400;2023-04-03T03:20:57;4.00;62.30
9057;DHT22;4563;54.756;9.400;2023-04-03T03:23:25;4.00;62.40
9057;DHT22;4563;54.756;9.400;2023-04-03T03:25:55;4.00;62.50
9057;DHT22;4563;54.756;9.400;2023-04-03T03:28:22;4.00;63.30
9057;DHT22;4563;54.756;9.400;2023-04-03T03:30:49;4.00;62.60
9057;DHT22;4563;54.756;9.400;2023-04-03T03:33:20;3.90;62.60
9057;DHT22;4563;54.756;9.400;2023-04-03T03:35:47;4.00;62.70
9057;DHT22;4563;54.756;9.400;2023-04-03T03:38:13;3.90;62.60
9057;DHT22;4563;54.756;9.400;2023-04-03T03:40:40;3.90;62.70
9057;DHT22;4563;54.756;9.400;2023-04-03T03:43:07;3.90;62.70
9057;DHT22;4563;54.756;9.400;2023-04-03T03:45:34;3.90;62.90
9057;DHT22;4563;54.756;9.400;2023-04-03T03:48:01;3.90;62.90
9057;DHT22;4563;54.756;9.400;2023-04-03T03:50:29;3.90;63.00
9057;DHT22;4563;54.756;9.400;2023-04-03T03:52:56;3.90;63.00
9057;DHT22;4563;54.756;9.400;2023-04-03T03:55:22;3.80;63.10
9057;DHT22;4563;54.756;9.400;2023-04-03T03:57:49;3.80;63.20
9057;DHT22;4563;54.756;9.400;2023-04-03T04:00:16;3.80;63.20
9057;DHT22;4563;54.756;9.400;2023-04-03T04:02:43;3.80;63.20
9057;DHT22;4563;54.756;9.400;2023-04-03T04:05:11;3.90;63.40
9057;DHT22;4563;54.756;9.400;2023-04-03T04:07:39;3.80;63.30
9057;DHT22;4563;54.756;9.400;2023-04-03T04:10:07;3.80;63.30
9057;DHT22;4563;54.756;9.400;2023-04-03T04:12:34;3.80;63.40
9057;DHT22;4563;54.756;9.400;2023-04-03T04:15:01;3.80;63.40
9057;DHT22;4563;54.756;9.400;2023-04-03T04:17:27;3.80;63.40
9057;DHT22;4563;54.756;9.400;2023-04-03T04:19:54;3.70;63.30
9057;DHT22;4563;54.756;9.400;2023-04-03T04:22:21;3.80;64.10
9057;DHT22;4563;54.756;9.400;2023-04-03T04:24:49;3.70;63.30
9057;DHT22;4563;54.756;9.400;2023-04-03T04:27:16;3.70;63.30
9057;DHT22;4563;54.756;9.400;2023-04-03T04:29:43;3.70;63.40
9057;DHT22;4563;54.756;9.400;2023-04-03T04:32:10;3.70;63.60
9057;DHT22;4563;54.756;9.400;2023-04-03T04:34:37;3.70;63.60
9057;DHT22;4563;54.756;9.400;2023-04-03T04:37:03;3.60;63.60
9057;DHT22;4563;54.756;9.400;2023-04-03T04:39:30;3.60;63.70
9057;DHT22;4563;54.756;9.400;2023-04-03T04:41:58;3.70;63.80
9057;DHT22;4563;54.756;9.400;2023-04-03T04:44:25;3.60;63.70
9057;DHT22;4563;54.756;9.400;2023-04-03T04:46:52;3.60;63.80
9057;DHT22;4563;54.756;9.400;2023-04-03T04:49:19;3.60;63.80
9057;DHT22;4563;54.756;9.400;2023-04-03T04:51:46;3.60;64.50
9057;DHT22;4563;54.756;9.400;2023-04-03T04:54:12;3.60;63.80
9057;DHT22;4563;54.756;9.400;2023-04-03T04:56:39;3.60;63.80
9057;DHT22;4563;54.756;9.400;2023-04-03T04:59:10;3.60;64.00
9057;DHT22;4563;54.756;9.400;2023-04-03T05:01:37;3.60;63.90
9057;DHT22;4563;54.756;9.400;2023-04-03T05:04:03;3.60;64.00
9057;DHT22;4563;54.756;9.400;2023-04-03T05:06:30;3.60;63.90
9057;DHT22;4563;54.756;9.400;2023-04-03T05:08:57;3.50;63.80
9057;DHT22;4563;54.756;9.400;2023-04-03T05:11:24;3.60;64.00
9057;DHT22;4563;54.756;9.400;2023-04-03T05:13:51;3.50;63.90
9057;DHT22;4563;54.756;9.400;2023-04-03T05:16:19;3.50;64.00
9057;DHT22;4563;54.756;9.400;2023-04-03T05:18:46;3.50;64.00
9057;DHT22;4563;54.756;9.400;2023-04-03T05:21:13;3.50;64.00
9057;DHT22;4563;54.756;9.400;2023-04-03T05:23:40;3.50;64.20
9057;DHT22;4563;54.756;9.400;2023-04-03T05:26:06;3.50;64.10
9057;DHT22;4563;54.756;9.400;2023-04-03T05:28:35;3.50;64.20
9057;DHT22;4563;54.756;9.400;2023-04-03T05:31:02;3.50;64.30
9057;DHT22;4563;54.756;9.400;2023-04-03T05:33:30;3.50;64.30
9057;DHT22;4563;54.756;9.400;2023-04-03T05:36:02;3.50;64.30
9057;DHT22;4563;54.756;9.400;2023-04-03T05:38:29;3.50;64.50
9057;DHT22;4563;54.756;9.400;2023-04-03T05:40:55;3.40;64.30
9057;DHT22;4563;54.756;9.400;2023-04-03T05:43:22;3.50;64.50
9057;DHT22;4563;54.756;9.400;2023-04-03T05:45:50;3.50;64.40
9057;DHT22;4563;54.756;9.400;2023-04-03T05:48:17;3.50;64.60
9057;DHT22;4563;54.756;9.400;2023-04-03T05:50:46;3.50;64.60
9057;DHT22;4563;54.756;9.400;2023-04-03T05:53:16;3.50;64.70
9057;DHT22;4563;54.756;9.400;2023-04-03T05:55:44;3.50;64.80
9057;DHT22;4563;54.756;9.400;2023-04-03T05:58:11;3.50;64.80
9057;DHT22;4563;54.756;9.400;2023-04-03T06:00:38;3.50;64.90
9057;DHT22;4563;54.756;9.400;2023-04-03T06:03:05;3.50;65.00
9057;DHT22;4563;54.756;9.400;2023-04-03T06:05:32;3.50;65.10
9057;DHT22;4563;54.756;9.400;2023-04-03T06:08:00;3.50;65.20
9057;DHT22;4563;54.756;9.400;2023-04-03T06:10:28;3.50;65.40
9057;DHT22;4563;54.756;9.400;2023-04-03T06:12:55;3.50;65.40
9057;DHT22;4563;54.756;9.400;2023-04-03T06:15:22;3.50;65.40
9057;DHT22;4563;54.756;9.400;2023-04-03T06:17:49;3.50;66.30
9057;DHT22;4563;54.756;9.400;2023-04-03T06:20:16;3.50;65.50
9057;DHT22;4563;54.756;9.400;2023-04-03T06:22:43;3.60;65.60
9057;DHT22;4563;54.756;9.400;2023-04-03T06:25:11;3.60;65.70
9057;DHT22;4563;54.756;9.400;2023-04-03T06:27:38;3.60;66.00
9057;DHT22;4563;54.756;9.400;2023-04-03T06:30:06;3.60;65.90
9057;DHT22;4563;54.756;9.400;2023-04-03T06:32:33;3.60;66.10
9057;DHT22;4563;54.756;9.400;2023-04-03T06:35:00;3.60;66.10
9057;DHT22;4563;54.756;9.400;2023-04-03T06:37:30;3.70;66.20
9057;DHT22;4563;54.756;9.400;2023-04-03T06:39:59;3.70;66.30
9057;DHT22;4563;54.756;9.400;2023-04-03T06:42:28;3.70;67.00
9057;DHT22;4563;54.756;9.400;2023-04-03T06:44:55;3.80;66.50
9057;DHT22;4563;54.756;9.400;2023-04-03T06:47:22;3.70;66.50
9057;DHT22;4563;54.756;9.400;2023-04-03T06:49:49;3.80;66.70
9057;DHT22;4563;54.756;9.400;2023-04-03T06:52:16;3.80;66.70
9057;DHT22;4563;54.756;9.400;2023-04-03T06:54:43;3.80;66.80
9057;DHT22;4563;54.756;9.400;2023-04-03T06:57:10;3.90;67.00
9057;DHT22;4563;54.756;9.400;2023-04-03T06:59:38;3.90;67.10
9057;DHT22;4563;54.756;9.400;2023-04-03T07:02:06;3.90;67.20
9057;DHT22;4563;54.756;9.400;2023-04-03T07:04:32;4.00;67.30
9057;DHT22;4563;54.756;9.400;2023-04-03T07:07:00;4.00;67.40
9057;DHT22;4563;54.756;9.400;2023-04-03T07:09:27;4.00;67.60
9057;DHT22;4563;54.756;9.400;2023-04-03T07:11:54;4.10;67.80
9057;DHT22;4563;54.756;9.400;2023-04-03T07:14:20;4.10;68.00
9057;DHT22;4563;54.756;9.400;2023-04-03T07:16:49;4.20;68.20
9057;DHT22;4563;54.756;9.400;2023-04-03T07:19:15;4.20;68.30
9057;DHT22;4563;54.756;9.400;2023-04-03T07:21:43;4.30;68.50
9057;DHT22;4563;54.756;9.400;2023-04-03T07:24:11;4.30;68.70
9057;DHT22;4563;54.756;9.400;2023-04-03T07:26:40;4.30;68.70
9057;DHT22;4563;54.756;9.400;2023-04-03T07:29:06;4.40;69.10
9057;DHT22;4563;54.756;9.400;2023-04-03T07:31:34;4.40;69.30
9057;DHT22;4563;54.756;9.400;2023-04-03T07:34:02;4.50;69.60
9057;DHT22;4563;54.756;9.400;2023-04-03T07:36:29;4.60;69.90
9057;DHT22;4563;54.756;9.400;2023-04-03T07:38:58;4.60;70.00
9057;DHT22;4563;54.756;9.400;2023-04-03T07:41:25;4.70;70.40
9057;DHT22;4563;54.756;9.400;2023-04-03T07:43:52;4.70;70.50
9057;DHT22;4563;54.756;9.400;2023-04-03T07:46:20;4.80;70.70
9057;DHT22;4563;54.756;9.400;2023-04-03T07:48:47;4.80;70.80
9057;DHT22;4563;54.756;9.400;2023-04-03T07:51:15;4.90;70.90
9057;DHT22;4563;54.756;9.400;2023-04-03T07:53:42;4.90;71.00
9057;DHT22;4563;54.756;9.400;2023-04-03T07:56:08;5.00;71.20
9057;DHT22;4563;54.756;9.400;2023-04-03T07:58:36;5.00;71.20
9057;DHT22;4563;54.756;9.400;2023-04-03T08:01:03;5.10;71.20
9057;DHT22;4563;54.756;9.400;2023-04-03T08:03:30;5.20;71.30
9057;DHT22;4563;54.756;9.400;2023-04-03T08:06:01;5.20;71.20
9057;DHT22;4563;54.756;9.400;2023-04-03T08:08:31;5.30;71.20
9057;DHT22;4563;54.756;9.400;2023-04-03T08:10:59;5.40;71.10
9057;DHT22;4563;54.756;9.400;2023-04-03T08:13:28;5.40;71.00
9057;DHT22;4563;54.756;9.400;2023-04-03T08:15:55;5.50;71.00
9057;DHT22;4563;54.756;9.400;2023-04-03T08:18:23;5.50;71.60
9057;DHT22;4563;54.756;9.400;2023-04-03T08:20:50;5.60;70.90
9057;DHT22;4563;54.756;9.400;2023-04-03T08:23:17;5.70;70.80
9057;DHT22;4563;54.756;9.400;2023-04-03T08:25:45;5.70;70.70
9057;DHT22;4563;54.756;9.400;2023-04-03T08:28:12;5.80;70.70
9057;DHT22;4563;54.756;9.400;2023-04-03T08:30:40;5.90;70.60
9057;DHT22;4563;54.756;9.400;2023-04-03T08:33:08;5.90;70.50
9057;DHT22;4563;54.756;9.400;2023-04-03T08:35:38;6.00;70.50
9057;DHT22;4563;54.756;9.400;2023-04-03T08:38:06;6.00;70.50
9057;DHT22;4563;54.756;9.400;2023-04-03T08:40:33;6.10;70.50
9057;DHT22;4563;54.756;9.400;2023-04-03T08:43:12;6.10;70.30
9057;DHT22;4563;54.756;9.400;2023-04-03T08:45:46;6.20;70.20
9057;DHT22;4563;54.756;9.400;2023-04-03T08:48:19;6.30;70.20
9057;DHT22;4563;54.756;9.400;2023-04-03T08:50:51;6.30;69.90
9057;DHT22;4563;54.756;9.400;2023-04-03T08:53:21;6.40;69.80
9057;DHT22;4563;54.756;9.400;2023-04-03T08:55:51;6.40;69.70
9057;DHT22;4563;54.756;9.400;2023-04-03T08:58:22;6.50;69.60
9057;DHT22;4563;54.756;9.400;2023-04-03T09:00:55;6.50;69.30
9057;DHT22;4563;54.756;9.400;2023-04-03T09:03:23;6.60;69.10
9057;DHT22;4563;54.756;9.400;2023-04-03T09:05:53;6.70;68.80
9057;DHT22;4563;54.756;9.400;2023-04-03T09:08:24;6.70;68.60
9057;DHT22;4563;54.756;9.400;2023-04-03T09:10:59;6.80;68.30
9057;DHT22;4563;54.756;9.400;2023-04-03T09:13:39;6.80;68.20
9057;DHT22;4563;54.756;9.400;2023-04-03T09:16:20;6.90;68.10
9057;DHT22;4563;54.756;9.400;2023-04-03T09:18:52;6.90;67.80
9057;DHT22;4563;54.756;9.400;2023-04-03T09:21:26;7.00;67.50
9057;DHT22;4563;54.756;9.400;2023-04-03T09:23:59;7.10;67.50
9057;DHT22;4563;54.756;9.400;2023-04-03T09:26:31;7.10;67.20
9057;DHT22;4563;54.756;9.400;2023-04-03T09:29:06;7.10;66.80
9057;DHT22;4563;54.756;9.400;2023-04-03T09:31:37;7.20;66.60
9057;DHT22;4563;54.756;9.400;2023-04-03T09:34:08;7.30;66.50
9057;DHT22;4563;54.756;9.400;2023-04-03T09:36:44;7.40;66.60
9057;DHT22;4563;54.756;9.400;2023-04-03T09:39:14;7.50;66.70
9057;DHT22;4563;54.756;9.400;2023-04-03T09:41:57;7.50;66.80
9057;DHT22;4563;54.756;9.400;2023-04-03T09:44:27;7.60;66.70
9057;DHT22;4563;54.756;9.400;2023-04-03T09:46:55;7.70;66.10
9057;DHT22;4563;54.756;9.400;2023-04-03T09:49:22;7.70;66.70
9057;DHT22;4563;54.756;9.400;2023-04-03T09:51:49;7.80;66.60
9057;DHT22;4563;54.756;9.400;2023-04-03T09:54:34;7.90;66.30
9057;DHT22;4563;54.756;9.400;2023-04-03T09:57:08;8.00;66.50
9057;DHT22;4563;54.756;9.400;2023-04-03T09:59:40;8.10;66.90
9057;DHT22;4563;54.756;9.400;2023-04-03T10:02:34;8.20;67.20
9057;DHT22;4563;54.756;9.400;2023-04-03T10:05:02;8.20;67.50
9057;DHT22;4563;54.756;9.400;2023-04-03T10:07:32;8.30;67.30
9057;DHT22;4563;54.756;9.400;2023-04-03T10:10:14;8.40;67.20
9057;DHT22;4563;54.756;9.400;2023-04-03T10:12:43;8.50;67.30
9057;DHT22;4563;54.756;9.400;2023-04-03T10:15:13;8.60;67.60
9057;DHT22;4563;54.756;9.400;2023-04-03T10:17:50;8.70;67.30
9057;DHT22;4563;54.756;9.400;2023-04-03T10:20:27;8.80;67.20
9057;DHT22;4563;54.756;9.400;2023-04-03T10:23:05;8.90;67.00
9057;DHT22;4563;54.756;9.400;2023-04-03T10:25:41;9.10;66.80
9057;DHT22;4563;54.756;9.400;2023-04-03T10:28:14;9.20;66.70
9057;DHT22;4563;54.756;9.400;2023-04-03T10:30:50;9.40;67.10
9057;DHT22;4563;54.756;9.400;2023-04-03T10:33:27;9.50;67.40
9057;DHT22;4563;54.756;9.400;2023-04-03T10:36:06;9.70;67.70
9057;DHT22;4563;54.756;9.400;2023-04-03T10:38:42;9.90;68.50
9057;DHT22;4563;54.756;9.400;2023-04-03T10:41:14;10.20;68.30
9057;DHT22;4563;54.756;9.400;2023-04-03T10:43:46;10.40;68.00
9057;DHT22;4563;54.756;9.400;2023-04-03T10:46:22;10.60;68.20
9057;DHT22;4563;54.756;9.400;2023-04-03T10:49:05;10.90;68.00
9057;DHT22;4563;54.756;9.400;2023-04-03T10:51:41;11.20;68.70
9057;DHT22;4563;54.756;9.400;2023-04-03T10:54:11;11.50;67.90
9057;DHT22;4563;54.756;9.400;2023-04-03T10:56:41;11.80;67.60
9057;DHT22;4563;54.756;9.400;2023-04-03T10:59:16;12.00;66.70
9057;DHT22;4563;54.756;9.400;2023-04-03T11:01:48;12.30;67.30
9057;DHT22;4563;54.756;9.400;2023-04-03T11:04:19;12.50;65.70
9057;DHT22;4563;54.756;9.400;2023-04-03T11:06:50;12.70;65.70
9057;DHT22;4563;54.756;9.400;2023-04-03T11:09:22;12.90;65.10
9057;DHT22;4563;54.756;9.400;2023-04-03T11:11:53;13.10;64.30
9057;DHT22;4563;54.756;9.400;2023-04-03T11:14:26;13.20;63.30
9057;DHT22;4563;54.756;9.400;2023-04-03T11:17:02;13.30;63.60
9057;DHT22;4563;54.756;9.400;2023-04-03T11:19:35;13.40;62.60
9057;DHT22;4563;54.756;9.400;2023-04-03T11:22:09;13.40;61.60
9057;DHT22;4563;54.756;9.400;2023-04-03T11:24:39;13.50;61.10
9057;DHT22;4563;54.756;9.400;2023-04-03T11:27:13;13.50;59.50
9057;DHT22;4563;54.756;9.400;2023-04-03T11:29:44;13.50;59.80
9057;DHT22;4563;54.756;9.400;2023-04-03T11:32:29;13.50;59.20
9057;DHT22;4563;54.756;9.400;2023-04-03T11:35:02;13.50;59.50
9057;DHT22;4563;54.756;9.400;2023-04-03T11:37:34;13.50;57.70
9057;DHT22;4563;54.756;9.400;2023-04-03T11:40:05;13.50;57.20
9057;DHT22;4563;54.756;9.400;2023-04-03T11:42:36;13.40;56.70
9057;DHT22;4563;54.756;9.400;2023-04-03T11:48:42;13.40;58.40
9057;DHT22;4563;54.756;9.400;2023-04-03T11:54:48;13.30;57.30
9057;DHT22;4563;54.756;9.400;2023-04-03T11:57:43;13.30;57.40
9057;DHT22;4563;54.756;9.400;2023-04-03T12:03:31;13.20;56.40
9057;DHT22;4563;54.756;9.400;2023-04-03T12:09:04;13.30;55.00
9057;DHT22;4563;54.756;9.400;2023-04-03T12:11:50;13.30;53.50
9057;DHT22;4563;54.756;9.400;2023-04-03T12:14:22;13.40;53.50
9057;DHT22;4563;54.756;9.400;2023-04-03T12:16:52;13.50;53.90
9057;DHT22;4563;54.756;9.400;2023-04-03T12:19:34;13.60;54.20
9057;DHT22;4563;54.756;9.400;2023-04-03T12:22:09;13.80;55.50
9057;DHT22;4563;54.756;9.400;2023-04-03T12:24:37;13.90;56.10
9057;DHT22;4563;54.756;9.400;2023-04-03T12:27:28;14.00;54.10
9057;DHT22;4563;54.756;9.400;2023-04-03T12:30:12;14.30;58.10
9057;DHT22;4563;54.756;9.400;2023-04-03T12:32:52;14.50;55.30
9057;DHT22;4563;54.756;9.400;2023-04-03T12:35:27;14.70;56.10
9057;DHT22;4563;54.756;9.400;2023-04-03T12:38:26;14.90;54.90
9057;DHT22;4563;54.756;9.400;2023-04-03T12:41:11;15.10;57.10
9057;DHT22;4563;54.756;9.400;2023-04-03T12:43:51;15.30;56.00
9057;DHT22;4563;54.756;9.400;2023-04-03T12:46:23;15.50;56.20
9057;DHT22;4563;54.756;9.400;2023-04-03T12:48:52;15.60;52.40
9057;DHT22;4563;54.756;9.400;2023-04-03T12:51:24;15.80;53.30
9057;DHT22;4563;54.756;9.400;2023-04-03T12:53:56;16.00;53.40
9057;DHT22;4563;54.756;9.400;2023-04-03T12:56:26;16.20;52.90
9057;DHT22;4563;54.756;9.400;2023-04-03T12:59:13;16.30;51.90
9057;DHT22;4563;54.756;9.400;2023-04-03T13:01:40;16.50;55.60
9057;DHT22;4563;54.756;9.400;2023-04-03T13:04:09;16.60;50.70
9057;DHT22;4563;54.756;9.400;2023-04-03T13:06:39;16.80;50.00
9057;DHT22;4563;54.756;9.400;2023-04-03T13:09:14;17.00;50.90
9057;DHT22;4563;54.756;9.400;2023-04-03T13:11:47;17.10;49.90
9057;DHT22;4563;54.756;9.400;2023-04-03T13:14:17;17.30;49.70
9057;DHT22;4563;54.756;9.400;2023-04-03T13:16:53;17.50;50.40
9057;DHT22;4563;54.756;9.400;2023-04-03T13:19:23;17.60;53.00
9057;DHT22;4563;54.756;9.400;2023-04-03T13:21:54;17.80;49.40
9057;DHT22;4563;54.756;9.400;2023-04-03T13:24:23;17.90;49.90
9057;DHT22;4563;54.756;9.400;2023-04-03T13:26:51;18.10;48.60
9057;DHT22;4563;54.756;9.400;2023-04-03T13:29:23;18.20;48.20
9057;DHT22;4563;54.756;9.400;2023-04-03T13:31:53;18.30;49.90
9057;DHT22;4563;54.756;9.400;2023-04-03T13:34:22;18.50;50.00
9057;DHT22;4563;54.756;9.400;2023-04-03T13:37:01;18.50;48.80
9057;DHT22;4563;54.756;9.400;2023-04-03T13:39:31;18.70;54.10
9057;DHT22;4563;54.756;9.400;2023-04-03T13:42:00;18.80;49.00
9057;DHT22;4563;54.756;9.400;2023-04-03T13:44:34;18.90;48.60
9057;DHT22;4563;54.756;9.400;2023-04-03T13:47:17;19.00;50.90
9057;DHT22;4563;54.756;9.400;2023-04-03T13:49:45;19.00;52.60
9057;DHT22;4563;54.756;9.400;2023-04-03T13:52:24;19.10;47.90
9057;DHT22;4563;54.756;9.400;2023-04-03T13:54:55;19.10;51.30
9057;DHT22;4563;54.756;9.400;2023-04-03T13:57:23;19.10;47.90
9057;DHT22;4563;54.756;9.400;2023-04-03T13:59:51;19.10;47.00
9057;DHT22;4563;54.756;9.400;2023-04-03T14:02:22;19.10;47.40
9057;DHT22;4563;54.756;9.400;2023-04-03T14:04:52;19.10;47.90
9057;DHT22;4563;54.756;9.400;2023-04-03T14:07:22;19.20;47.70
9057;DHT22;4563;54.756;9.400;2023-04-03T14:09:49;19.20;47.60
9057;DHT22;4563;54.756;9.400;2023-04-03T14:12:18;19.20;46.90
9057;DHT22;4563;54.756;9.400;2023-04-03T14:14:46;19.20;46.70
9057;DHT22;4563;54.756;9.400;2023-04-03T14:17:17;19.20;46.60
9057;DHT22;4563;54.756;9.400;2023-04-03T14:19:45;19.10;47.50
9057;DHT22;4563;54.756;9.400;2023-04-03T14:22:15;19.10;45.40
9057;DHT22;4563;54.756;9.400;2023-04-03T14:24:43;19.10;45.20
9057;DHT22;4563;54.756;9.400;2023-04-03T14:27:16;19.10;45.20
9057;DHT22;4563;54.756;9.400;2023-04-03T14:29:44;19.00;45.90
9057;DHT22;4563;54.756;9.400;2023-04-03T14:32:13;19.00;46.20
9057;DHT22;4563;54.756;9.400;2023-04-03T14:34:41;19.00;44.40
9057;DHT22;4563;54.756;9.400;2023-04-03T14:37:11;18.90;43.90
9057;DHT22;4563;54.756;9.400;2023-04-03T14:39:38;18.90;43.90
9057;DHT22;4563;54.756;9.400;2023-04-03T14:42:06;18.80;43.60
9057;DHT22;4563;54.756;9.400;2023-04-03T14:44:36;18.80;43.60
9057;DHT22;4563;54.756;9.400;2023-04-03T14:47:04;18.80;43.60
9057;DHT22;4563;54.756;9.400;2023-04-03T14:49:32;18.70;43.60
9057;DHT22;4563;54.756;9.400;2023-04-03T14:51:59;18.70;44.10
9057;DHT22;4563;54.756;9.400;2023-04-03T14:54:26;18.60;43.60
9057;DHT22;4563;54.756;9.400;2023-04-03T14:56:55;18.60;43.10
9057;DHT22;4563;54.756;9.400;2023-04-03T14:59:23;18.60;43.00
9057;DHT22;4563;54.756;9.400;2023-04-03T15:01:51;18.50;42.90
9057;DHT22;4563;54.756;9.400;2023-04-03T15:04:19;18.40;42.60
9057;DHT22;4563;54.756;9.400;2023-04-03T15:06:48;18.40;42.40
9057;DHT22;4563;54.756;9.400;2023-04-03T15:09:20;18.30;42.30
9057;DHT22;4563;54.756;9.400;2023-04-03T15:11:47;18.30;42.40
9057;DHT22;4563;54.756;9.400;2023-04-03T15:14:14;18.20;42.20
9057;DHT22;4563;54.756;9.400;2023-04-03T15:16:41;18.10;42.60
9057;DHT22;4563;54.756;9.400;2023-04-03T15:19:08;18.00;41.90
9057;DHT22;4563;54.756;9.400;2023-04-03T15:21:35;17.90;41.90
9057;DHT22;4563;54.756;9.400;2023-04-03T15:24:04;17.80;42.00
9057;DHT22;4563;54.756;9.400;2023-04-03T15:26:31;17.70;42.50
9057;DHT22;4563;54.756;9.400;2023-04-03T15:28:58;17.60;41.90
9057;DHT22;4563;54.756;9.400;2023-04-03T15:31:25;17.50;41.70
9057;DHT22;4563;54.756;9.400;2023-04-03T15:33:52;17.40;41.80
9057;DHT22;4563;54.756;9.400;2023-04-03T15:36:19;17.20;41.70
9057;DHT22;4563;54.756;9.400;2023-04-03T15:38:46;17.10;42.10
9057;DHT22;4563;54.756;9.400;2023-04-03T15:41:14;17.00;41.60
9057;DHT22;4563;54.756;9.400;2023-04-03T15:43:41;16.90;42.00
9057;DHT22;4563;54.756;9.400;2023-04-03T15:46:08;16.70;41.50
9057;DHT22;4563;54.756;9.400;2023-04-03T15:48:38;16.60;42.10
9057;DHT22;4563;54.756;9.400;2023-04-03T15:51:05;16.50;41.90
9057;DHT22;4563;54.756;9.400;2023-04-03T15:53:32;16.40;41.60
9057;DHT22;4563;54.756;9.400;2023-04-03T15:55:59;16.20;41.80
9057;DHT22;4563;54.756;9.400;2023-04-03T15:58:28;16.20;41.70
9057;DHT22;4563;54.756;9.400;2023-04-03T16:00:55;16.10;41.60
9057;DHT22;4563;54.756;9.400;2023-04-03T16:03:21;15.90;41.70
9057;DHT22;4563;54.756;9.400;2023-04-03T16:05:50;15.80;42.00
9057;DHT22;4563;54.756;9.400;2023-04-03T16:08:18;15.70;42.10
9057;DHT22;4563;54.756;9.400;2023-04-03T16:10:45;15.60;41.90
9057;DHT22;4563;54.756;9.400;2023-04-03T16:13:12;15.50;42.00
9057;DHT22;4563;54.756;9.400;2023-04-03T16:15:41;15.40;41.70
9057;DHT22;4563;54.756;9.400;2023-04-03T16:18:08;15.30;42.20
9057;DHT22;4563;54.756;9.400;2023-04-03T16:20:36;15.20;42.20
9057;DHT22;4563;54.756;9.400;2023-04-03T16:23:03;15.10;42.00
9057;DHT22;4563;54.756;9.400;2023-04-03T16:25:30;15.00;42.00
9057;DHT22;4563;54.756;9.400;2023-04-03T16:27:57;14.90;42.10
9057;DHT22;4563;54.756;9.400;2023-04-03T16:30:27;14.80;42.40
9057;DHT22;4563;54.756;9.400;2023-04-03T16:32:56;14.70;42.40
9057;DHT22;4563;54.756;9.400;2023-04-03T16:35:23;14.50;42.60
9057;DHT22;4563;54.756;9.400;2023-04-03T16:37:50;14.50;42.50
9057;DHT22;4563;54.756;9.400;2023-04-03T16:40:17;14.40;43.10
9057;DHT22;4563;54.756;9.400;2023-04-03T16:42:44;14.30;42.20
9057;DHT22;4563;54.756;9.400;2023-04-03T16:45:11;14.20;42.30